createdAt,value
2016-11-15T00:02:31.616Z,0
2016-11-15T00:07:35.701Z,0
2016-11-15T00:12:39.780Z,0
2016-11-15T00:17:43.866Z,0
2016-11-15T00:22:48.278Z,0
2016-11-15T00:27:52.362Z,0
2016-11-15T00:32:56.782Z,0
2016-11-15T00:38:00.868Z,0
2016-11-15T00:43:04.939Z,0
2016-11-15T00:48:09.028Z,0
2016-11-15T00:53:13.445Z,0
2016-11-15T00:58:17.529Z,0
2016-11-15T01:03:21.613Z,0
2016-11-15T01:08:26.024Z,0
2016-11-15T01:13:30.102Z,0
2016-11-15T01:18:34.526Z,0
2016-11-15T01:23:38.955Z,0
2016-11-15T01:28:43.377Z,0
2016-11-15T01:33:47.454Z,0
2016-11-15T01:38:51.537Z,0
2016-11-15T01:43:55.618Z,0
2016-11-15T01:48:59.698Z,0
2016-11-15T01:54:04.110Z,0
2016-11-15T01:59:08.525Z,0
2016-11-15T02:04:12.608Z,0
2016-11-15T02:09:16.689Z,0
2016-11-15T02:14:20.765Z,0
2016-11-15T02:19:25.854Z,0
2016-11-15T02:24:30.276Z,0
2016-11-15T02:29:34.698Z,0
2016-11-15T02:34:39.119Z,0
2016-11-15T02:39:44.214Z,0
2016-11-15T02:44:48.307Z,0
2016-11-15T02:49:52.390Z,0
2016-11-15T02:54:56.810Z,0
2016-11-15T03:00:00.893Z,0
2016-11-15T03:05:04.970Z,0
2016-11-15T03:10:09.387Z,0
2016-11-15T03:15:14.141Z,0
2016-11-15T03:20:18.565Z,0
2016-11-15T03:25:22.648Z,0
2016-11-15T03:30:27.076Z,0
2016-11-15T03:35:31.165Z,0
2016-11-15T03:40:35.247Z,0
2016-11-15T03:45:39.999Z,0
2016-11-15T03:50:44.079Z,0
2016-11-15T03:55:48.157Z,0
2016-11-15T04:00:52.571Z,0
2016-11-15T04:05:56.985Z,0
2016-11-15T04:11:01.411Z,0
2016-11-15T04:16:05.495Z,0
2016-11-15T04:21:09.912Z,0
2016-11-15T04:26:14.334Z,0
2016-11-15T04:31:18.762Z,0
2016-11-15T04:36:22.839Z,0
2016-11-15T04:41:26.927Z,0
2016-11-15T04:46:31.008Z,0
2016-11-15T04:51:35.434Z,0
2016-11-15T04:56:39.848Z,0
2016-11-15T05:01:44.284Z,0
2016-11-15T05:06:48.380Z,0
2016-11-15T05:11:52.467Z,0
2016-11-15T05:16:56.551Z,0
2016-11-15T05:22:00.643Z,0
2016-11-15T05:27:04.992Z,0
2016-11-15T05:32:09.419Z,0
2016-11-15T05:37:13.841Z,0
2016-11-15T05:42:18.319Z,0
2016-11-15T05:47:23.082Z,0
2016-11-15T05:52:27.168Z,0
2016-11-15T05:57:31.924Z,1
2016-11-15T06:02:36.354Z,0
2016-11-15T06:07:40.451Z,0
2016-11-15T06:12:44.554Z,0
2016-11-15T06:17:49.316Z,0
2016-11-15T06:22:53.423Z,1
2016-11-15T06:27:57.847Z,1
2016-11-15T06:33:01.934Z,1
2016-11-15T06:38:06.021Z,2
2016-11-15T06:43:10.106Z,3
2016-11-15T06:48:14.182Z,5
2016-11-15T06:53:18.268Z,6
2016-11-15T06:58:22.694Z,8
2016-11-15T07:03:27.445Z,12
2016-11-15T07:08:31.525Z,15
2016-11-15T07:13:35.948Z,18
2016-11-15T07:18:40.369Z,23
2016-11-15T07:23:44.788Z,27
2016-11-15T07:28:48.881Z,34
2016-11-15T07:33:52.970Z,35
2016-11-15T07:38:57.059Z,39
2016-11-15T07:44:01.136Z,51
2016-11-15T07:49:05.555Z,49
2016-11-15T07:54:09.641Z,50
2016-11-15T07:59:13.731Z,51
2016-11-15T08:04:18.158Z,89
2016-11-15T08:09:22.243Z,150
2016-11-15T08:14:26.671Z,187
2016-11-15T08:19:30.756Z,175
2016-11-15T08:24:35.511Z,94
2016-11-15T08:29:39.616Z,94
2016-11-15T08:34:44.042Z,112
2016-11-15T08:39:48.133Z,114
2016-11-15T08:44:52.225Z,162
2016-11-15T08:49:56.987Z,178
2016-11-15T08:55:01.069Z,126
2016-11-15T09:00:05.145Z,89
2016-11-15T09:05:09.246Z,130
2016-11-15T09:10:13.323Z,177
2016-11-15T09:15:17.412Z,265
2016-11-15T09:20:21.499Z,230
2016-11-15T09:25:25.923Z,219
2016-11-15T09:30:30.009Z,199
2016-11-15T09:35:34.093Z,239
2016-11-15T09:40:38.855Z,185
2016-11-15T09:45:42.943Z,169
2016-11-15T09:50:47.034Z,211
2016-11-15T09:55:51.123Z,210
2016-11-15T10:00:55.204Z,246
2016-11-15T10:05:59.636Z,223
2016-11-15T10:11:03.719Z,189
2016-11-15T10:16:08.147Z,173
2016-11-15T10:21:12.242Z,223
2016-11-15T10:26:16.326Z,164
2016-11-15T10:31:20.752Z,231
2016-11-15T10:36:25.177Z,320
2016-11-15T10:41:29.274Z,228
2016-11-15T10:46:33.365Z,172
2016-11-15T10:51:37.784Z,194
2016-11-15T10:56:41.880Z,366
2016-11-15T11:01:45.973Z,395
2016-11-15T11:06:50.405Z,405
2016-11-15T11:11:54.501Z,283
2016-11-15T11:16:58.924Z,181
2016-11-15T11:22:03.348Z,156
2016-11-15T11:27:08.028Z,218
2016-11-15T11:32:12.454Z,119
2016-11-15T11:37:16.881Z,156
2016-11-15T11:42:21.303Z,127
2016-11-15T11:47:25.728Z,219
2016-11-15T11:52:30.158Z,198
2016-11-15T11:57:34.242Z,158
2016-11-15T12:02:38.331Z,230
2016-11-15T12:07:43.088Z,198
2016-11-15T12:12:47.516Z,258
2016-11-15T12:17:51.941Z,258
2016-11-15T12:22:56.026Z,152
2016-11-15T12:28:00.115Z,279
2016-11-15T12:33:04.203Z,396
2016-11-15T12:38:08.966Z,303
2016-11-15T12:43:13.054Z,130
2016-11-15T12:48:17.142Z,112
2016-11-15T12:53:21.406Z,158
2016-11-15T12:58:25.412Z,154
2016-11-15T13:03:29.497Z,141
2016-11-15T13:08:34.263Z,144
2016-11-15T13:13:38.705Z,107
2016-11-15T13:18:42.910Z,94
2016-11-15T13:23:47.192Z,115
2016-11-15T13:28:51.367Z,136
2016-11-15T13:33:55.785Z,127
2016-11-15T13:39:00.551Z,109
2016-11-15T13:44:04.643Z,68
2016-11-15T13:49:09.071Z,87
2016-11-15T13:54:13.492Z,88
2016-11-15T13:59:17.910Z,98
2016-11-15T14:04:22.328Z,97
2016-11-15T14:09:26.407Z,133
2016-11-15T14:14:30.527Z,74
2016-11-15T14:19:34.612Z,63
2016-11-15T14:24:38.738Z,47
2016-11-15T14:29:43.163Z,43
2016-11-15T14:34:47.913Z,48
2016-11-15T14:39:52.058Z,46
2016-11-15T14:44:56.158Z,39
2016-11-15T14:50:00.573Z,27
2016-11-15T14:55:05.007Z,22
2016-11-15T15:00:09.497Z,20
2016-11-15T15:05:13.945Z,10
2016-11-15T15:10:18.090Z,7
2016-11-15T15:15:22.277Z,6
2016-11-15T15:20:26.762Z,5
2016-11-15T15:25:31.243Z,4
2016-11-15T15:30:35.310Z,3
2016-11-15T15:35:39.738Z,2
2016-11-15T15:40:43.824Z,2
2016-11-15T15:45:48.249Z,0
2016-11-15T15:50:52.691Z,0
2016-11-15T15:55:56.778Z,0
2016-11-15T16:01:01.206Z,0
2016-11-15T16:06:05.512Z,0
2016-11-15T16:11:09.588Z,0
2016-11-15T16:16:14.030Z,0
2016-11-15T16:21:18.498Z,0
2016-11-15T16:26:23.097Z,0
2016-11-15T16:31:27.202Z,0
2016-11-15T16:36:31.636Z,0
2016-11-15T16:41:36.060Z,0
2016-11-15T16:46:40.146Z,0
2016-11-15T16:51:44.422Z,0
2016-11-15T16:56:48.851Z,1
2016-11-15T17:01:53.783Z,1
2016-11-15T17:06:58.204Z,1
2016-11-15T17:12:02.289Z,1
2016-11-15T17:17:07.066Z,1
2016-11-15T17:22:11.155Z,1
2016-11-15T17:27:15.911Z,1
2016-11-15T17:32:20.025Z,1
2016-11-15T17:37:24.453Z,1
2016-11-15T17:42:28.560Z,1
2016-11-15T17:47:32.661Z,1
2016-11-15T17:52:36.755Z,1
2016-11-15T17:57:41.182Z,1
2016-11-15T18:02:45.480Z,1
2016-11-15T18:07:49.567Z,1
2016-11-15T18:12:53.703Z,1
2016-11-15T18:17:58.125Z,1
2016-11-15T18:23:02.554Z,1
2016-11-15T18:28:06.657Z,1
2016-11-15T18:33:10.809Z,1
2016-11-15T18:38:14.931Z,1
2016-11-15T18:43:19.356Z,1
2016-11-15T18:48:23.786Z,1
2016-11-15T18:53:28.550Z,1
2016-11-15T18:58:33.481Z,1
2016-11-15T19:03:37.900Z,1
2016-11-15T19:08:41.989Z,1
2016-11-15T19:13:46.092Z,1
2016-11-15T19:18:50.182Z,1
2016-11-15T19:23:54.271Z,1
2016-11-15T19:28:58.363Z,1
2016-11-15T19:34:02.448Z,1
2016-11-15T19:39:06.743Z,1
2016-11-15T19:44:11.166Z,1
2016-11-15T19:49:15.256Z,1
2016-11-15T19:54:19.628Z,0
2016-11-15T19:59:23.741Z,1
2016-11-15T20:04:27.833Z,0
2016-11-15T20:09:32.253Z,0
2016-11-15T20:14:37.626Z,1
2016-11-15T20:19:42.184Z,0
2016-11-15T20:24:46.280Z,0
2016-11-15T20:29:50.372Z,0
2016-11-15T20:34:54.457Z,0
2016-11-15T20:39:58.539Z,0
2016-11-15T20:45:02.958Z,0
2016-11-15T20:50:07.388Z,0
2016-11-15T20:55:11.483Z,0
2016-11-15T21:00:15.912Z,0
2016-11-15T21:05:20.529Z,0
2016-11-15T21:10:25.286Z,0
2016-11-15T21:15:29.370Z,0
2016-11-15T21:20:33.468Z,0
2016-11-15T21:25:37.900Z,0
2016-11-15T21:30:42.319Z,0
2016-11-15T21:35:46.407Z,0
2016-11-15T21:40:50.825Z,0
2016-11-15T21:45:55.272Z,0
2016-11-15T21:50:59.805Z,0
2016-11-15T21:56:04.243Z,0
2016-11-15T22:01:08.328Z,0
2016-11-15T22:06:12.407Z,0
2016-11-15T22:11:17.166Z,0
2016-11-15T22:16:21.591Z,0
2016-11-15T22:21:25.693Z,0
2016-11-15T22:26:29.783Z,0
2016-11-15T22:31:33.897Z,0
2016-11-15T22:36:38.656Z,0
2016-11-15T22:41:43.085Z,0
2016-11-15T22:46:47.179Z,0
2016-11-15T22:51:51.944Z,0
2016-11-15T22:56:56.371Z,0
2016-11-15T23:02:01.126Z,0
2016-11-15T23:07:05.212Z,0
2016-11-15T23:12:09.299Z,0
2016-11-15T23:17:13.722Z,0
2016-11-15T23:22:17.802Z,0
2016-11-15T23:27:22.240Z,0
2016-11-15T23:32:26.661Z,0
2016-11-15T23:37:30.753Z,0
2016-11-15T23:42:35.180Z,0
2016-11-15T23:47:39.255Z,0
2016-11-15T23:52:43.339Z,0
2016-11-15T23:57:48.094Z,0
